createdAt,value
2023-11-13T00:00:21.588Z,2.60
2023-11-13T00:11:02.862Z,2.67
2023-11-13T00:21:24.244Z,3.38
2023-11-13T00:31:45.735Z,3.47
2023-11-13T00:42:07.060Z,2.47
2023-11-13T00:52:28.201Z,2.80
2023-11-13T01:02:49.540Z,3.05
2023-11-13T01:13:11.603Z,2.35
2023-11-13T01:23:33.484Z,2.35
2023-11-13T01:33:54.775Z,2.58
2023-11-13T01:44:16.070Z,2.53
2023-11-13T01:54:37.736Z,2.75
2023-11-13T02:04:58.813Z,2.70
2023-11-13T02:15:20.544Z,2.95
2023-11-13T02:25:42.943Z,2.80
2023-11-13T02:36:05.150Z,3.03
2023-11-13T02:46:26.504Z,3.20
2023-11-13T02:56:47.795Z,3.22
2023-11-13T03:07:09.206Z,3.28
2023-11-13T03:17:31.531Z,3.67
2023-11-13T03:27:53.020Z,3.50
2023-11-13T03:38:14.417Z,3.70
2023-11-13T03:48:35.588Z,3.67
2023-11-13T03:58:56.894Z,3.30
2023-11-13T04:09:17.902Z,4.00
2023-11-13T04:19:41.929Z,3.35
2023-11-13T04:30:03.070Z,3.97
2023-11-13T04:40:24.531Z,3.80
2023-11-13T04:50:45.693Z,3.75
2023-11-13T05:01:07.253Z,3.83
2023-11-13T05:11:29.248Z,3.97
2023-11-13T05:21:50.555Z,4.07
2023-11-13T05:32:11.761Z,3.88
2023-11-13T05:42:33.227Z,2.90
2023-11-13T05:52:54.593Z,3.42
2023-11-13T06:03:15.999Z,3.00
2023-11-13T06:13:37.479Z,3.55
2023-11-13T06:23:58.808Z,3.72
2023-11-13T06:34:20.123Z,3.67
2023-11-13T06:44:42.921Z,3.67
2023-11-13T06:55:04.619Z,3.88
2023-11-13T07:05:26.472Z,4.05
2023-11-13T07:15:48.155Z,4.13
2023-11-13T07:26:10.707Z,3.40
2023-11-13T07:36:33.133Z,4.07
2023-11-13T07:46:55.168Z,3.80
2023-11-13T07:57:17.131Z,3.67
2023-11-13T08:07:42.284Z,3.47
2023-11-13T08:18:05.496Z,3.63
2023-11-13T08:28:27.834Z,3.65
2023-11-13T08:38:49.142Z,3.28
2023-11-13T08:49:10.717Z,3.75
2023-11-13T08:59:32.113Z,3.30
2023-11-13T09:09:56.491Z,3.50
2023-11-13T09:20:21.025Z,3.63
2023-11-13T09:30:42.280Z,3.00
2023-11-13T09:41:05.479Z,3.47
2023-11-13T09:51:30.995Z,3.50
2023-11-13T10:01:52.506Z,3.35
2023-11-13T10:12:13.838Z,3.45
2023-11-13T10:22:35.088Z,3.53
2023-11-13T10:32:56.158Z,3.15
2023-11-13T10:43:32.114Z,2.92
2023-11-13T10:53:54.180Z,3.55
2023-11-13T11:04:18.014Z,3.13
2023-11-13T11:15:15.393Z,3.55
2023-11-13T11:25:39.589Z,2.90
2023-11-13T11:36:01.569Z,2.90
2023-11-13T11:46:23.943Z,3.28
2023-11-13T11:57:06.015Z,3.30
2023-11-13T12:07:27.331Z,2.67
2023-11-13T12:17:48.454Z,2.97
2023-11-13T12:28:10.503Z,3.13
2023-11-13T12:38:31.930Z,2.90
2023-11-13T12:49:00.373Z,2.78
2023-11-13T12:59:21.854Z,3.30
2023-11-13T13:09:45.905Z,3.17
2023-11-13T13:20:19.949Z,2.72
2023-11-13T13:30:41.963Z,2.80
2023-11-13T13:41:05.391Z,2.65
2023-11-13T13:51:26.716Z,2.90
2023-11-13T14:01:49.199Z,2.67
2023-11-13T14:12:18.652Z,2.70
2023-11-13T14:22:49.987Z,2.97
2023-11-13T14:33:12.858Z,3.45
2023-11-13T14:43:34.265Z,3.13
2023-11-13T14:53:55.752Z,3.50
2023-11-13T15:04:17.174Z,2.85
2023-11-13T15:14:40.918Z,3.28
2023-11-13T15:25:01.975Z,3.35
2023-11-13T15:35:23.657Z,3.97
2023-11-13T15:45:44.940Z,3.83
2023-11-13T15:56:09.182Z,3.67
2023-11-13T16:06:30.561Z,3.30
2023-11-13T16:16:52.435Z,3.20
2023-11-13T16:27:13.879Z,3.33
2023-11-13T16:37:35.076Z,3.30
2023-11-13T16:47:57.253Z,2.85
2023-11-13T16:58:18.234Z,2.60
2023-11-13T17:08:40.541Z,2.75
2023-11-13T17:19:01.656Z,2.63
2023-11-13T17:29:23.065Z,2.58
2023-11-13T17:39:46.628Z,1.95
2023-11-13T17:50:10.128Z,2.38
2023-11-13T18:00:31.480Z,2.35
2023-11-13T18:10:57.402Z,1.85
2023-11-13T18:21:19.726Z,2.10
2023-11-13T18:31:42.163Z,1.90
2023-11-13T18:42:04.197Z,2.42
2023-11-13T18:52:27.189Z,2.20
2023-11-13T19:02:49.248Z,2.30
2023-11-13T19:13:10.612Z,1.92
2023-11-13T19:23:32.440Z,2.00
2023-11-13T19:33:56.483Z,2.35
2023-11-13T19:44:17.948Z,2.63
2023-11-13T19:54:39.426Z,2.15
2023-11-13T20:05:01.213Z,2.00
2023-11-13T20:15:23.176Z,2.20
2023-11-13T20:25:44.706Z,1.90
2023-11-13T20:36:07.591Z,1.90
2023-11-13T20:46:29.127Z,2.05
2023-11-13T20:56:50.178Z,1.77
2023-11-13T21:07:12.925Z,1.98
2023-11-13T21:17:34.264Z,1.90
2023-11-13T21:27:55.762Z,1.80
2023-11-13T21:38:17.091Z,1.48
2023-11-13T21:48:38.368Z,1.90
2023-11-13T21:59:00.024Z,1.80
2023-11-13T22:09:22.451Z,1.50
2023-11-13T22:19:43.864Z,1.20
2023-11-13T22:30:05.625Z,1.25
2023-11-13T22:40:27.669Z,1.17
2023-11-13T22:50:49.180Z,1.35
2023-11-13T23:01:10.717Z,1.10
2023-11-13T23:11:33.286Z,1.05
2023-11-13T23:22:01.979Z,1.00
2023-11-13T23:32:25.767Z,1.00
2023-11-13T23:42:47.038Z,0.90
2023-11-13T23:53:09.067Z,1.00
